createdAt,value
2022-11-15T00:02:26.767Z,66
2022-11-15T00:04:59.255Z,65
2022-11-15T00:07:54.416Z,65
2022-11-15T00:10:04.072Z,65
2022-11-15T00:12:37.043Z,65
2022-11-15T00:15:07.892Z,65
2022-11-15T00:17:38.636Z,65
2022-11-15T00:20:10.023Z,65
2022-11-15T00:22:42.882Z,65
2022-11-15T00:25:17.750Z,66
2022-11-15T00:27:50.000Z,66
2022-11-15T00:30:21.100Z,65
2022-11-15T00:32:51.901Z,66
2022-11-15T00:35:25.037Z,66
2022-11-15T00:37:56.547Z,66
2022-11-15T00:40:28.582Z,65
2022-11-15T00:43:00.845Z,65
2022-11-15T00:45:32.024Z,65
2022-11-15T00:48:06.246Z,66
2022-11-15T00:50:39.104Z,66
2022-11-15T00:53:12.103Z,66
2022-11-15T00:55:45.298Z,66
2022-11-15T00:58:18.817Z,66
2022-11-15T01:00:51.485Z,66
2022-11-15T01:03:22.499Z,66
2022-11-15T01:06:00.349Z,66
2022-11-15T01:08:33.885Z,66
2022-11-15T01:11:07.343Z,66
2022-11-15T01:13:41.252Z,66
2022-11-15T01:16:12.398Z,67
2022-11-15T01:18:44.577Z,67
2022-11-15T01:21:18.067Z,66
2022-11-15T01:23:49.428Z,66
2022-11-15T01:26:25.050Z,66
2022-11-15T01:28:56.807Z,66
2022-11-15T01:31:29.102Z,66
2022-11-15T01:34:00.724Z,66
2022-11-15T01:36:33.834Z,66
2022-11-15T01:39:05.188Z,66
2022-11-15T01:41:36.090Z,66
2022-11-15T01:44:06.908Z,66
2022-11-15T01:46:39.500Z,66
2022-11-15T01:49:10.653Z,66
2022-11-15T01:51:43.669Z,67
2022-11-15T01:54:14.831Z,67
2022-11-15T01:56:46.265Z,67
2022-11-15T01:59:17.210Z,67
2022-11-15T02:01:48.134Z,67
2022-11-15T02:04:19.188Z,67
2022-11-15T02:06:49.907Z,67
2022-11-15T02:09:22.175Z,67
2022-11-15T02:11:56.011Z,67
2022-11-15T02:14:26.572Z,68
2022-11-15T02:17:04.870Z,68
2022-11-15T02:19:36.755Z,68
2022-11-15T02:22:10.950Z,67
2022-11-15T02:24:42.455Z,67
2022-11-15T02:27:13.769Z,67
2022-11-15T02:29:45.546Z,67
2022-11-15T02:32:17.412Z,67
2022-11-15T02:34:48.454Z,67
2022-11-15T02:37:21.225Z,67
2022-11-15T02:39:54.023Z,67
2022-11-15T02:42:26.468Z,67
2022-11-15T02:44:58.565Z,67
2022-11-15T02:47:35.053Z,67
2022-11-15T02:50:07.392Z,67
2022-11-15T02:52:38.958Z,67
2022-11-15T02:55:10.442Z,67
2022-11-15T02:57:48.119Z,67
2022-11-15T03:00:20.741Z,67
2022-11-15T03:02:52.599Z,67
2022-11-15T03:05:24.082Z,67
2022-11-15T03:07:59.545Z,67
2022-11-15T03:10:26.704Z,67
2022-11-15T03:12:59.572Z,67
2022-11-15T03:15:31.141Z,67
2022-11-15T03:18:03.090Z,68
2022-11-15T03:20:36.454Z,68
2022-11-15T03:23:08.128Z,68
2022-11-15T03:25:42.302Z,68
2022-11-15T03:28:14.087Z,68
2022-11-15T03:30:44.765Z,68
2022-11-15T03:33:16.200Z,68
2022-11-15T03:35:51.721Z,69
2022-11-15T03:38:23.622Z,69
2022-11-15T03:40:55.037Z,69
2022-11-15T03:43:25.952Z,69
2022-11-15T03:45:56.995Z,69
2022-11-15T03:48:28.567Z,69
2022-11-15T03:51:01.744Z,69
2022-11-15T03:53:32.622Z,69
2022-11-15T03:56:03.775Z,69
2022-11-15T03:58:35.724Z,69
2022-11-15T04:01:07.234Z,69
2022-11-15T04:03:40.269Z,68
2022-11-15T04:06:11.560Z,68
2022-11-15T04:08:42.719Z,69
2022-11-15T04:11:14.334Z,69
2022-11-15T04:13:45.622Z,70
2022-11-15T04:16:18.154Z,70
2022-11-15T04:18:48.908Z,71
2022-11-15T04:21:21.086Z,70
2022-11-15T04:23:54.214Z,70
2022-11-15T04:26:27.068Z,71
2022-11-15T04:28:59.108Z,71
2022-11-15T04:31:29.980Z,71
2022-11-15T04:34:02.441Z,71
2022-11-15T04:36:34.719Z,71
2022-11-15T04:39:04.422Z,71
2022-11-15T04:41:35.216Z,70
2022-11-15T04:44:07.120Z,70
2022-11-15T04:46:37.893Z,70
2022-11-15T04:49:08.297Z,71
2022-11-15T04:51:39.621Z,70
2022-11-15T04:54:10.271Z,70
2022-11-15T04:56:43.620Z,71
2022-11-15T04:59:15.406Z,71
2022-11-15T05:01:47.440Z,70
2022-11-15T05:04:22.469Z,71
2022-11-15T05:06:54.783Z,70
2022-11-15T05:09:27.280Z,70
2022-11-15T05:11:59.200Z,70
2022-11-15T05:14:34.029Z,70
2022-11-15T05:17:05.198Z,70
2022-11-15T05:19:36.057Z,70
2022-11-15T05:22:07.793Z,70
2022-11-15T05:24:38.474Z,70
2022-11-15T05:27:19.447Z,70
2022-11-15T05:29:51.478Z,70
2022-11-15T05:32:27.032Z,70
2022-11-15T05:35:03.780Z,70
2022-11-15T05:37:35.523Z,70
2022-11-15T05:40:06.942Z,70
2022-11-15T05:42:38.345Z,71
2022-11-15T05:45:09.205Z,70
2022-11-15T05:47:42.238Z,70
2022-11-15T05:50:15.220Z,71
2022-11-15T05:52:47.665Z,71
2022-11-15T05:55:19.806Z,71
2022-11-15T05:57:57.401Z,71
2022-11-15T06:00:29.281Z,70
2022-11-15T06:03:01.101Z,70
2022-11-15T06:05:35.465Z,70
2022-11-15T06:08:12.701Z,70
2022-11-15T06:10:44.237Z,70
2022-11-15T06:13:19.808Z,70
2022-11-15T06:15:53.128Z,70
2022-11-15T06:18:24.533Z,70
2022-11-15T06:20:58.628Z,70
2022-11-15T06:23:29.277Z,70
2022-11-15T06:26:00.106Z,70
2022-11-15T06:28:31.028Z,70
2022-11-15T06:31:01.903Z,70
2022-11-15T06:33:34.367Z,70
2022-11-15T06:36:05.169Z,69
2022-11-15T06:38:37.744Z,69
2022-11-15T06:41:09.826Z,69
2022-11-15T06:43:40.431Z,69
2022-11-15T06:46:12.322Z,69
2022-11-15T06:48:43.473Z,70
2022-11-15T06:51:14.498Z,69
2022-11-15T06:53:45.642Z,69
2022-11-15T06:56:16.332Z,69
2022-11-15T06:58:47.310Z,68
2022-11-15T07:03:57.352Z,68
2022-11-15T07:06:28.073Z,69
2022-11-15T07:08:59.473Z,69
2022-11-15T07:11:30.344Z,69
2022-11-15T07:14:02.299Z,69
2022-11-15T07:16:33.413Z,68
2022-11-15T07:19:05.893Z,69
2022-11-15T07:21:36.950Z,69
2022-11-15T07:24:12.720Z,69
2022-11-15T07:26:44.428Z,68
2022-11-15T07:29:15.322Z,68
2022-11-15T07:31:46.949Z,68
2022-11-15T07:34:17.786Z,69
2022-11-15T07:36:50.867Z,68
2022-11-15T07:39:21.689Z,68
2022-11-15T07:41:54.002Z,68
2022-11-15T07:44:25.847Z,68
2022-11-15T07:46:56.531Z,68
2022-11-15T07:49:27.342Z,68
2022-11-15T07:52:00.584Z,67
2022-11-15T07:54:34.333Z,67
2022-11-15T07:57:11.175Z,68
2022-11-15T07:59:42.610Z,68
2022-11-15T08:02:17.544Z,67
2022-11-15T08:04:48.070Z,67
2022-11-15T08:07:20.570Z,67
2022-11-15T08:09:52.572Z,67
2022-11-15T08:12:24.045Z,66
2022-11-15T08:14:55.469Z,66
2022-11-15T08:17:26.356Z,66
2022-11-15T08:19:59.099Z,66
2022-11-15T08:22:29.831Z,66
2022-11-15T08:25:02.109Z,66
2022-11-15T08:27:33.603Z,66
2022-11-15T08:30:04.489Z,66
2022-11-15T08:32:35.075Z,66
2022-11-15T08:35:04.051Z,65
2022-11-15T08:37:37.073Z,66
2022-11-15T08:40:07.942Z,65
2022-11-15T08:42:37.375Z,65
2022-11-15T08:45:09.650Z,65
2022-11-15T08:47:41.833Z,65
2022-11-15T08:50:12.813Z,65
2022-11-15T08:52:44.646Z,64
2022-11-15T08:55:17.461Z,64
2022-11-15T08:57:46.428Z,64
2022-11-15T09:00:18.822Z,64
2022-11-15T09:02:49.138Z,64
2022-11-15T09:05:20.234Z,64
2022-11-15T09:07:49.596Z,64
2022-11-15T09:10:20.027Z,64
2022-11-15T09:12:50.434Z,64
2022-11-15T09:15:23.387Z,64
2022-11-15T09:17:54.476Z,63
2022-11-15T09:20:24.875Z,63
2022-11-15T09:22:55.427Z,63
2022-11-15T09:25:28.875Z,63
2022-11-15T09:28:03.808Z,63
2022-11-15T09:30:36.219Z,62
2022-11-15T09:33:08.848Z,63
2022-11-15T09:35:39.612Z,63
2022-11-15T09:38:11.555Z,63
2022-11-15T09:40:45.196Z,63
2022-11-15T09:43:16.775Z,63
2022-11-15T09:45:48.074Z,63
2022-11-15T09:48:18.747Z,63
2022-11-15T09:50:48.352Z,62
2022-11-15T09:53:24.599Z,61
2022-11-15T09:55:50.624Z,61
2022-11-15T09:58:21.287Z,61
2022-11-15T10:00:52.386Z,61
2022-11-15T10:03:22.885Z,60
2022-11-15T10:05:55.595Z,60
2022-11-15T10:08:27.615Z,60
2022-11-15T10:11:30.349Z,60
2022-11-15T10:13:32.397Z,60
2022-11-15T10:16:03.274Z,60
2022-11-15T10:18:33.734Z,60
2022-11-15T10:21:05.371Z,61
2022-11-15T10:23:36.578Z,61
2022-11-15T10:26:09.355Z,60
2022-11-15T10:28:39.719Z,61
2022-11-15T10:31:14.348Z,60
2022-11-15T10:33:42.738Z,60
2022-11-15T10:36:12.198Z,60
2022-11-15T10:38:44.646Z,60
2022-11-15T10:41:15.506Z,60
2022-11-15T10:43:46.178Z,59
2022-11-15T10:46:39.732Z,59
2022-11-15T10:48:47.934Z,60
2022-11-15T10:51:21.304Z,60
2022-11-15T10:53:52.164Z,59
2022-11-15T10:56:23.022Z,60
2022-11-15T10:58:53.570Z,60
2022-11-15T11:01:24.250Z,59
2022-11-15T11:03:56.317Z,60
2022-11-15T11:06:26.541Z,60
2022-11-15T11:08:59.001Z,60
2022-11-15T11:11:29.714Z,60
2022-11-15T11:14:00.824Z,60
2022-11-15T11:16:38.751Z,60
2022-11-15T11:19:10.658Z,60
2022-11-15T11:21:41.131Z,60
2022-11-15T11:24:11.747Z,60
2022-11-15T11:26:41.962Z,61
2022-11-15T11:29:14.714Z,60
2022-11-15T11:31:46.133Z,60
2022-11-15T11:34:17.436Z,60
2022-11-15T11:36:48.515Z,61
2022-11-15T11:39:20.239Z,61
2022-11-15T11:41:50.623Z,61
2022-11-15T11:44:22.935Z,60
2022-11-15T11:46:53.860Z,60
2022-11-15T11:49:29.714Z,60
2022-11-15T11:52:03.479Z,61
2022-11-15T11:54:36.098Z,60
2022-11-15T11:57:07.290Z,60
2022-11-15T11:59:37.744Z,61
2022-11-15T12:02:08.568Z,61
2022-11-15T12:04:39.239Z,60
2022-11-15T12:07:09.898Z,60
2022-11-15T12:09:39.885Z,60
2022-11-15T12:12:10.495Z,60
2022-11-15T12:14:41.639Z,61
2022-11-15T12:17:12.106Z,60
2022-11-15T12:19:43.025Z,60
2022-11-15T12:22:18.151Z,60
2022-11-15T12:24:49.838Z,60
2022-11-15T12:27:26.470Z,60
2022-11-15T12:30:00.591Z,60
2022-11-15T12:32:32.625Z,60
2022-11-15T12:35:05.819Z,60
2022-11-15T12:37:36.359Z,60
2022-11-15T12:40:05.409Z,61
2022-11-15T12:42:39.096Z,60
2022-11-15T12:45:10.571Z,60
2022-11-15T12:47:42.375Z,60
2022-11-15T12:50:14.949Z,60
2022-11-15T12:52:46.505Z,60
2022-11-15T12:55:18.816Z,60
2022-11-15T12:57:49.486Z,60
2022-11-15T13:00:25.258Z,60
2022-11-15T13:02:54.332Z,60
2022-11-15T13:05:26.876Z,60
2022-11-15T13:07:59.307Z,60
2022-11-15T13:10:30.443Z,60
2022-11-15T13:13:02.573Z,60
2022-11-15T13:15:41.242Z,59
2022-11-15T13:18:08.447Z,60
2022-11-15T13:20:39.116Z,60
2022-11-15T13:23:09.581Z,59
2022-11-15T13:25:40.173Z,60
2022-11-15T13:28:10.819Z,60
2022-11-15T13:30:43.191Z,60
2022-11-15T13:33:14.821Z,60
2022-11-15T13:35:47.012Z,60
2022-11-15T13:38:19.301Z,60
2022-11-15T13:40:50.860Z,60
2022-11-15T13:43:25.506Z,60
2022-11-15T13:45:57.109Z,60
2022-11-15T13:48:30.676Z,60
2022-11-15T13:51:02.703Z,59
2022-11-15T13:53:34.664Z,60
2022-11-15T13:56:06.651Z,61
2022-11-15T13:58:38.536Z,61
2022-11-15T14:01:10.395Z,61
2022-11-15T14:03:41.610Z,62
2022-11-15T14:06:15.950Z,60
2022-11-15T14:08:46.811Z,61
2022-11-15T14:11:19.882Z,60
2022-11-15T14:13:50.734Z,60
2022-11-15T14:16:21.876Z,60
2022-11-15T14:18:52.258Z,60
2022-11-15T14:21:23.344Z,60
2022-11-15T14:23:54.793Z,61
2022-11-15T14:26:25.574Z,61
2022-11-15T14:28:58.663Z,61
2022-11-15T14:31:28.296Z,61
2022-11-15T14:34:00.992Z,61
2022-11-15T14:36:32.023Z,62
2022-11-15T14:39:02.647Z,62
2022-11-15T14:41:34.525Z,62
2022-11-15T14:44:06.104Z,62
2022-11-15T14:46:37.693Z,62
2022-11-15T14:49:09.451Z,62
2022-11-15T14:51:42.595Z,62
2022-11-15T14:54:16.397Z,63
2022-11-15T14:56:48.442Z,63
2022-11-15T14:59:19.154Z,63
2022-11-15T15:01:53.104Z,63
2022-11-15T15:04:26.032Z,63
2022-11-15T15:06:56.860Z,64
2022-11-15T15:09:31.615Z,64
2022-11-15T15:12:06.410Z,64
2022-11-15T15:14:35.009Z,65
2022-11-15T15:17:07.798Z,65
2022-11-15T15:19:41.022Z,65
2022-11-15T15:22:11.981Z,65
2022-11-15T15:24:44.394Z,65
2022-11-15T15:27:16.429Z,65
2022-11-15T15:29:49.937Z,64
2022-11-15T15:32:22.642Z,64
2022-11-15T15:34:59.562Z,64
2022-11-15T15:37:33.882Z,64
2022-11-15T15:40:07.565Z,64
2022-11-15T15:42:39.657Z,64
2022-11-15T15:45:10.507Z,65
2022-11-15T15:47:44.572Z,65
2022-11-15T15:50:16.944Z,65
2022-11-15T15:52:48.431Z,65
2022-11-15T15:55:21.204Z,65
2022-11-15T15:57:52.064Z,65
2022-11-15T16:00:26.359Z,66
2022-11-15T16:02:58.481Z,67
2022-11-15T16:05:31.465Z,67
2022-11-15T16:08:04.270Z,67
2022-11-15T16:10:38.713Z,67
2022-11-15T16:13:13.748Z,67
2022-11-15T16:15:47.280Z,67
2022-11-15T16:18:22.446Z,67
2022-11-15T16:20:55.672Z,67
2022-11-15T16:23:28.880Z,67
2022-11-15T16:26:01.708Z,67
2022-11-15T16:28:34.377Z,67
2022-11-15T16:31:08.054Z,67
2022-11-15T16:33:42.198Z,67
2022-11-15T16:36:11.218Z,67
2022-11-15T16:38:46.257Z,67
2022-11-15T16:41:17.976Z,67
2022-11-15T16:43:51.124Z,67
2022-11-15T16:46:22.326Z,67
2022-11-15T16:48:56.687Z,67
2022-11-15T16:51:28.743Z,67
2022-11-15T16:53:59.713Z,68
2022-11-15T16:56:30.363Z,68
2022-11-15T16:59:11.294Z,68
2022-11-15T17:01:46.197Z,69
2022-11-15T17:04:20.929Z,69
2022-11-15T17:06:52.924Z,69
2022-11-15T17:09:23.330Z,69
2022-11-15T17:12:00.453Z,70
2022-11-15T17:14:38.868Z,70
2022-11-15T17:17:10.452Z,70
2022-11-15T17:19:42.782Z,70
2022-11-15T17:22:13.921Z,70
2022-11-15T17:24:46.508Z,70
2022-11-15T17:27:19.126Z,70
2022-11-15T17:29:50.507Z,70
2022-11-15T17:32:28.993Z,70
2022-11-15T17:35:00.285Z,70
2022-11-15T17:37:31.110Z,69
2022-11-15T17:40:03.974Z,69
2022-11-15T17:42:35.336Z,69
2022-11-15T17:45:09.829Z,69
2022-11-15T17:47:39.560Z,69
2022-11-15T17:50:11.068Z,69
2022-11-15T17:52:43.933Z,70
2022-11-15T17:55:15.730Z,70
2022-11-15T17:57:47.129Z,70
2022-11-15T18:00:17.771Z,70
2022-11-15T18:02:49.158Z,70
2022-11-15T18:05:22.181Z,70
2022-11-15T18:07:57.172Z,70
2022-11-15T18:10:29.623Z,70
2022-11-15T18:13:03.827Z,69
2022-11-15T18:15:37.173Z,70
2022-11-15T18:18:07.505Z,69
2022-11-15T18:20:38.671Z,70
2022-11-15T18:23:10.455Z,70
2022-11-15T18:25:41.641Z,70
2022-11-15T18:28:12.473Z,70
2022-11-15T18:30:48.304Z,70
2022-11-15T18:33:20.457Z,70
2022-11-15T18:35:54.003Z,70
2022-11-15T18:38:26.236Z,70
2022-11-15T18:40:58.572Z,70
2022-11-15T18:43:29.785Z,70
2022-11-15T18:46:02.928Z,70
2022-11-15T18:48:35.064Z,71
2022-11-15T18:51:07.987Z,71
2022-11-15T18:53:37.930Z,70
2022-11-15T18:56:10.012Z,70
2022-11-15T18:58:40.367Z,70
2022-11-15T19:01:12.791Z,70
2022-11-15T19:03:48.658Z,71
2022-11-15T19:06:18.649Z,71
2022-11-15T19:08:48.332Z,70
2022-11-15T19:11:32.943Z,71
2022-11-15T19:14:05.723Z,71
2022-11-15T19:16:37.196Z,71
2022-11-15T19:19:11.363Z,71
2022-11-15T19:21:44.030Z,71
2022-11-15T19:24:18.189Z,71
2022-11-15T19:26:49.962Z,70
2022-11-15T19:29:27.950Z,71
2022-11-15T19:34:51.247Z,71
2022-11-15T19:37:21.251Z,71
2022-11-15T19:39:59.174Z,71
2022-11-15T19:42:31.923Z,71
2022-11-15T19:45:02.456Z,71
2022-11-15T19:47:36.925Z,71
2022-11-15T19:50:13.448Z,71
2022-11-15T19:52:50.287Z,71
2022-11-15T19:55:21.622Z,71
2022-11-15T19:57:54.041Z,70
2022-11-15T20:00:26.124Z,70
2022-11-15T20:02:57.413Z,70
2022-11-15T20:05:29.310Z,70
2022-11-15T20:08:01.120Z,71
2022-11-15T20:10:34.069Z,71
2022-11-15T20:13:03.921Z,71
2022-11-15T20:15:36.150Z,70
2022-11-15T20:18:10.942Z,70
2022-11-15T20:20:42.411Z,70
2022-11-15T20:23:16.995Z,70
2022-11-15T20:25:48.342Z,70
2022-11-15T20:28:23.431Z,70
2022-11-15T20:30:54.611Z,70
2022-11-15T20:33:25.913Z,70
2022-11-15T20:35:57.153Z,71
2022-11-15T20:38:29.261Z,71
2022-11-15T20:41:01.547Z,71
2022-11-15T20:43:31.152Z,71
2022-11-15T20:46:04.220Z,71
2022-11-15T20:48:36.207Z,71
2022-11-15T20:51:07.273Z,71
2022-11-15T20:53:40.735Z,72
2022-11-15T20:56:13.024Z,72
2022-11-15T20:58:44.922Z,73
2022-11-15T21:01:16.885Z,73
2022-11-15T21:03:52.356Z,72
2022-11-15T21:06:25.875Z,72
2022-11-15T21:09:07.008Z,72
2022-11-15T21:11:37.977Z,72
2022-11-15T21:14:12.444Z,72
2022-11-15T21:16:45.780Z,72
2022-11-15T21:19:18.536Z,72
2022-11-15T21:21:50.044Z,71
2022-11-15T21:24:21.033Z,72
2022-11-15T21:26:51.928Z,72
2022-11-15T21:29:22.952Z,71
2022-11-15T21:32:09.330Z,72
2022-11-15T21:34:40.208Z,71
2022-11-15T21:37:13.225Z,71
2022-11-15T21:39:46.853Z,72
2022-11-15T21:42:16.227Z,72
2022-11-15T21:44:48.332Z,73
2022-11-15T21:47:20.727Z,72
2022-11-15T21:49:54.919Z,72
2022-11-15T21:52:25.886Z,72
2022-11-15T21:55:05.253Z,72
2022-11-15T21:57:38.035Z,71
2022-11-15T22:00:08.799Z,71
2022-11-15T22:02:39.956Z,71
2022-11-15T22:05:13.149Z,71
2022-11-15T22:07:46.344Z,71
2022-11-15T22:10:15.543Z,71
2022-11-15T22:12:47.337Z,71
2022-11-15T22:15:19.176Z,71
2022-11-15T22:17:50.333Z,71
2022-11-15T22:22:55.105Z,71
2022-11-15T22:25:25.825Z,71
2022-11-15T22:27:57.842Z,71
2022-11-15T22:30:31.143Z,71
2022-11-15T22:33:10.987Z,71
2022-11-15T22:35:41.965Z,72
2022-11-15T22:38:12.508Z,72
2022-11-15T22:40:46.015Z,72
2022-11-15T22:43:17.789Z,73
2022-11-15T22:45:49.029Z,73
2022-11-15T22:48:21.316Z,72
2022-11-15T22:50:52.130Z,72
2022-11-15T22:53:23.238Z,72
2022-11-15T22:55:55.397Z,72
2022-11-15T22:58:25.826Z,73
2022-11-15T23:00:59.763Z,73
2022-11-15T23:03:33.808Z,73
2022-11-15T23:06:04.613Z,74
2022-11-15T23:11:07.534Z,73
2022-11-15T23:13:39.026Z,73
2022-11-15T23:16:09.555Z,73
2022-11-15T23:18:39.564Z,73
2022-11-15T23:21:09.750Z,73
2022-11-15T23:23:48.384Z,73
2022-11-15T23:26:21.084Z,73
2022-11-15T23:31:28.717Z,73
2022-11-15T23:34:01.085Z,73
2022-11-15T23:36:34.420Z,73
2022-11-15T23:39:06.685Z,73
2022-11-15T23:41:35.878Z,74
2022-11-15T23:44:06.415Z,74
2022-11-15T23:46:36.600Z,74
2022-11-15T23:49:07.402Z,74
2022-11-15T23:51:38.147Z,74
2022-11-15T23:54:15.024Z,74
2022-11-15T23:56:47.038Z,74
2022-11-15T23:59:17.191Z,74
